Time;durP1;ratioP1;P1;durP2;ratioP2;P2;SDS_P1;SDS_P2;PMS_P1;PMS_P2;Temp;Humidity;BMP_temperature;BMP_pressure;BME280_temperature;BME280_humidity;BME280_pressure;Samples;Min_cycle;Max_cycle;Signal;HPM_P1;HPM_P2
2022/10/01 00:00:17;;;;;;;2.20;1.30;;;;;;;;;;20911873;28;20373;-71
2022/10/01 00:10:19;;;;;;;1.83;1.20;;;;;;;;;;20910109;28;20303;-70
2022/10/01 00:20:21;;;;;;;2.07;1.23;;;;;;;;;;20910225;28;20240;-70
2022/10/01 00:30:22;;;;;;;1.63;1.10;;;;;;;;;;20891822;28;20283;-70
2022/10/01 00:40:24;;;;;;;1.37;1.00;;;;;;;;;;20908902;28;20674;-70
2022/10/01 00:50:33;;;;;;;6.83;1.20;;;;;;;;;;20908555;28;20280;-70
2022/10/01 01:00:37;;;;;;;2.80;1.67;;;10.90;99.90;;;;;;20907313;28;20198;-70
2022/10/01 01:11:03;;;;;;;1.93;1.33;;;;;;;;;;20905568;28;20218;-70
2022/10/01 01:21:08;;;;;;;2.30;1.57;;;;;;;;;;20905607;28;20198;-70
2022/10/01 01:31:15;;;;;;;2.37;1.50;;;;;;;;;;20869825;28;20240;-70
2022/10/01 01:41:19;;;;;;;1.67;1.20;;;10.70;99.90;;;;;;20904497;28;20255;-70
2022/10/01 01:51:39;;;;;;;1.80;1.10;;;10.70;99.90;;;;;;20903195;28;20307;-70
2022/10/01 02:01:42;;;;;;;2.47;1.30;;;10.90;99.90;;;;;;20902320;28;20206;-70
2022/10/01 02:12:24;;;;;;;1.53;0.87;;;10.70;99.90;;;;;;20899791;28;20230;-70
2022/10/01 02:22:41;;;;;;;1.23;0.73;;;;;;;;;;20873298;28;20290;-70
2022/10/01 02:32:46;;;;;;;1.00;0.80;;;10.90;99.90;;;;;;20900971;28;20602;-72
2022/10/01 02:42:52;;;;;;;0.63;0.53;;;10.80;99.90;;;;;;20899958;28;20673;-72
2022/10/01 02:52:58;;;;;;;1.00;0.77;;;;;;;;;;20899468;28;20297;-72
2022/10/01 03:02:59;;;;;;;1.47;0.80;;;;;;;;;;20897914;28;20689;-72
2022/10/01 03:13:03;;;;;;;0.50;0.50;;;;;;;;;;20898348;28;20236;-72
2022/10/01 03:23:04;;;;;;;0.87;0.70;;;;;;;;;;20899649;28;20190;-72
2022/10/01 03:33:07;;;;;;;1.87;1.00;;;;;;;;;;20911840;28;20303;-72
2022/10/01 03:43:08;;;;;;;1.07;0.70;;;;;;;;;;20895143;28;20256;-71
2022/10/01 03:53:11;;;;;;;1.07;0.70;;;;;;;;;;20894684;28;20218;-72
2022/10/01 04:03:13;;;;;;;0.77;0.70;;;;;;;;;;20895087;28;20206;-72
2022/10/01 04:13:15;;;;;;;1.83;0.80;;;;;;;;;;20891457;28;20210;-72
2022/10/01 04:23:17;;;;;;;1.33;0.70;;;;;;;;;;20892390;28;20259;-70
2022/10/01 04:33:19;;;;;;;1.23;0.93;;;;;;;;;;20908552;28;20213;-71
2022/10/01 04:43:20;;;;;;;1.13;0.70;;;;;;;;;;20909780;28;20327;-70
2022/10/01 04:53:22;;;;;;;0.80;0.60;;;;;;;;;;20906942;28;20264;-70
2022/10/01 05:03:24;;;;;;;0.73;0.70;;;;;;;;;;20907158;28;20210;-69
2022/10/01 05:13:28;;;;;;;3.20;0.70;;;;;;;;;;20904518;28;20218;-70
2022/10/01 05:23:30;;;;;;;0.80;0.60;;;;;;;;;;20906017;28;20202;-71
2022/10/01 05:33:33;;;;;;;3.87;0.83;;;;;;;;;;20886632;28;20222;-70
2022/10/01 05:43:35;;;;;;;1.83;0.90;;;;;;;;;;20888081;28;20260;-71
2022/10/01 05:53:37;;;;;;;0.73;0.73;;;;;;;;;;20970983;28;20236;-74
2022/10/01 06:03:38;;;;;;;0.77;0.57;;;;;;;;;;20949034;28;20262;-71
2022/10/01 06:13:43;;;;;;;0.97;0.50;;;;;;;;;;20967106;28;20237;-71
2022/10/01 06:23:48;;;;;;;1.20;0.43;;;10.50;99.90;;;;;;20929410;28;20278;-70
2022/10/01 06:33:50;;;;;;;0.97;0.80;;;;;;;;;;20936337;28;20233;-71
2022/10/01 06:43:52;;;;;;;0.70;0.47;;;;;;;;;;20982395;28;20212;-70
2022/10/01 06:53:54;;;;;;;0.60;0.50;;;;;;;;;;20982115;28;20228;-70
2022/10/01 07:03:55;;;;;;;1.30;0.40;;;;;;;;;;20996354;28;20205;-70
2022/10/01 07:13:57;;;;;;;0.40;0.40;;;;;;;;;;20964431;28;21360;-70
2022/10/01 07:23:59;;;;;;;0.80;0.40;;;;;;;;;;20998566;28;20221;-70
2022/10/01 07:34:01;;;;;;;0.40;0.40;;;;;;;;;;20997911;28;20267;-70
2022/10/01 07:44:03;;;;;;;0.83;0.50;;;;;;;;;;20967602;28;20629;-71
2022/10/01 07:54:05;;;;;;;0.67;0.40;;;;;;;;;;20982607;28;20290;-73
2022/10/01 08:14:29;;;;;;;1.40;0.53;;;9.30;99.90;;;;;;20955998;28;20251;-71
2022/10/01 08:24:33;;;;;;;0.30;0.30;;;;;;;;;;20992715;28;20217;-70
2022/10/01 08:34:35;;;;;;;0.30;0.30;;;;;;;;;;20993182;28;20242;-70
2022/10/01 08:44:42;;;;;;;0.23;0.23;;;10.60;99.90;;;;;;20974353;28;20629;-72
2022/10/01 08:54:50;;;;;;;0.17;0.13;;;;;;;;;;20991794;28;20209;-70
2022/10/01 09:04:56;;;;;;;0.50;0.40;;;10.70;99.90;;;;;;20955509;28;20209;-70
2022/10/01 09:15:10;;;;;;;0.30;0.20;;;;;;;;;;20882290;28;20299;-68
2022/10/01 09:25:20;;;;;;;0.40;0.30;;;10.70;99.90;;;;;;20979814;28;20212;-68
2022/10/01 09:35:34;;;;;;;0.30;0.30;;;;;;;;;;20969462;28;20213;-69
2022/10/01 09:45:37;;;;;;;0.30;0.30;;;;;;;;;;20911564;28;20275;-69
2022/10/01 09:55:41;;;;;;;0.20;0.20;;;11.00;99.90;;;;;;20892147;28;20283;-69
2022/10/01 10:05:45;;;;;;;0.70;0.40;;;;;;;;;;21015232;23;20298;-69
2022/10/01 10:15:56;;;;;;;2.70;0.80;;;11.10;99.90;;;;;;20990808;28;20266;-69
2022/10/01 10:26:04;;;;;;;0.37;0.30;;;11.30;99.90;;;;;;21032721;28;20327;-67
2022/10/01 10:36:08;;;;;;;0.40;0.30;;;;;;;;;;20953656;28;20221;-67
2022/10/01 10:46:10;;;;;;;0.20;0.20;;;;;;;;;;20992951;28;20216;-67
2022/10/01 10:56:23;;;;;;;0.33;0.30;;;;;;;;;;21001949;28;20285;-67
2022/10/01 11:06:25;;;;;;;0.20;0.20;;;;;;;;;;21033506;28;20246;-67
2022/10/01 11:16:36;;;;;;;0.20;0.20;;;;;;;;;;21010118;28;20277;-67
2022/10/01 11:26:54;;;;;;;0.30;0.30;;;;;;;;;;21027959;28;20204;-67
2022/10/01 11:36:59;;;;;;;0.20;0.20;;;;;;;;;;21033208;28;20682;-67
2022/10/01 11:47:14;;;;;;;0.20;0.20;;;11.90;99.90;;;;;;21037679;28;20216;-69
2022/10/01 12:07:49;;;;;;;0.30;0.30;;;;;;;;;;20987971;28;20221;-67
2022/10/01 12:17:53;;;;;;;0.30;0.30;;;;;;;;;;20984815;28;20292;-67
2022/10/01 12:28:03;;;;;;;0.30;0.30;;;;;;;;;;21012578;28;20205;-68
2022/10/01 12:38:13;;;;;;;0.40;0.30;;;;;;;;;;21038452;28;20777;-67
2022/10/01 12:48:30;;;;;;;0.70;0.40;;;12.60;99.90;;;;;;21043535;28;20205;-67
2022/10/01 12:58:43;;;;;;;0.33;0.30;;;;;;;;;;21043150;28;20211;-67
2022/10/01 13:08:44;;;;;;;0.67;0.30;;;;;;;;;;21041811;28;20224;-68
2022/10/01 13:18:58;;;;;;;1.97;0.40;;;;;;;;;;21003521;28;20861;-68
2022/10/01 13:29:36;;;;;;;0.83;0.30;;;12.60;99.90;;;;;;20950605;28;20233;-68
2022/10/01 13:39:41;;;;;;;0.73;0.20;;;;;;;;;;21020999;28;20238;-67
2022/10/01 13:49:52;;;;;;;0.20;0.20;;;;;;;;;;21000049;28;20229;-68
2022/10/01 14:00:02;;;;;;;0.50;0.30;;;;;;;;;;20993821;28;20224;-68
2022/10/01 14:10:12;;;;;;;0.87;0.37;;;;;;;;;;20983204;28;20281;-67
2022/10/01 14:20:20;;;;;;;1.13;0.30;;;13.00;99.90;;;;;;21013618;28;20544;-68
2022/10/01 14:30:23;;;;;;;1.80;0.53;;;;;;;;;;21013340;28;20764;-68
2022/10/01 14:40:25;;;;;;;0.30;0.30;;;;;;;;;;21029536;28;20200;-68
2022/10/01 14:50:27;;;;;;;0.30;0.30;;;;;;;;;;20974215;28;20251;-69
2022/10/01 15:00:32;;;;;;;0.90;0.40;;;;;;;;;;20928587;28;20761;-69
2022/10/01 15:10:34;;;;;;;1.77;0.67;;;;;;;;;;20988191;28;20228;-69
2022/10/01 15:20:36;;;;;;;0.53;0.40;;;;;;;;;;20992188;28;20212;-69
2022/10/01 15:30:38;;;;;;;0.47;0.30;;;;;;;;;;20965739;28;20282;-68
2022/10/01 15:40:41;;;;;;;0.57;0.30;;;;;;;;;;20984065;28;20216;-68
2022/10/01 15:50:43;;;;;;;0.50;0.37;;;;;;;;;;20948016;28;20217;-68
2022/10/01 16:00:59;;;;;;;1.03;0.30;;;;;;;;;;21059910;22;20216;-70
2022/10/01 16:11:26;;;;;;;0.60;0.50;;;;;;;;;;21055042;28;20759;-70
2022/10/01 16:21:28;;;;;;;0.30;0.30;;;;;;;;;;21005627;28;20684;-70
2022/10/01 16:31:30;;;;;;;0.30;0.30;;;;;;;;;;21040054;28;20220;-70
2022/10/01 16:41:33;;;;;;;0.87;0.33;;;;;;;;;;21071648;28;20242;-70
2022/10/01 16:51:34;;;;;;;0.83;0.33;;;;;;;;;;21066574;28;20752;-70
2022/10/01 17:01:37;;;;;;;0.70;0.40;;;;;;;;;;21070257;28;20232;-70
2022/10/01 17:11:39;;;;;;;0.70;0.40;;;;;;;;;;21070383;28;20258;-70
2022/10/01 17:21:41;;;;;;;0.40;0.30;;;;;;;;;;21069777;28;20256;-70
2022/10/01 17:31:45;;;;;;;0.47;0.40;;;;;;;;;;21051159;28;20653;-71
2022/10/01 17:41:47;;;;;;;0.50;0.40;;;;;;;;;;21066295;28;20221;-71
2022/10/01 17:51:49;;;;;;;0.67;0.47;;;;;;;;;;21070699;28;20274;-70
2022/10/01 18:01:52;;;;;;;3.00;1.23;;;;;;;;;;21067485;28;20465;-70
2022/10/01 18:11:54;;;;;;;1.60;0.60;;;;;;;;;;21069121;28;20293;-70
2022/10/01 18:21:57;;;;;;;0.60;0.30;;;13.10;99.90;;;;;;21039990;28;20642;-69
2022/10/01 18:32:14;;;;;;;1.97;0.60;;;13.00;99.90;;;;;;21057780;28;20285;-68
2022/10/01 18:42:45;;;;;;;0.63;0.40;;;13.10;99.90;;;;;;21065497;28;20213;-70
2022/10/01 18:53:14;;;;;;;0.50;0.40;;;13.00;99.90;;;;;;21068779;28;20352;-70
2022/10/01 19:03:24;;;;;;;1.37;0.77;;;;;;;;;;21076730;28;20220;-70
2022/10/01 19:13:44;;;;;;;1.90;0.67;;;13.00;99.90;;;;;;21063743;28;20211;-70
2022/10/01 19:24:03;;;;;;;1.23;0.40;;;12.90;99.90;;;;;;21094347;28;20622;-69
2022/10/01 19:34:09;;;;;;;1.90;0.97;;;;;;;;;;21070018;28;20219;-69
2022/10/01 19:44:14;;;;;;;1.40;0.60;;;;;;;;;;21086301;28;20686;-71
2022/10/01 19:54:23;;;;;;;4.43;2.30;;;;;;;;;;21090690;28;20228;-70
2022/10/01 20:04:34;;;;;;;6.83;2.80;;;;;;;;;;21087768;28;20600;-70
2022/10/01 20:15:10;;;;;;;10.77;9.63;;;12.50;99.90;;;;;;21077959;28;20204;-70
2022/10/01 20:25:24;;;;;;;3.40;1.57;;;;;;;;;;21056123;28;20744;-70
2022/10/01 20:35:39;;;;;;;0.77;0.57;;;13.10;99.90;;;;;;21051985;28;20593;-70
2022/10/01 20:45:41;;;;;;;3.57;0.63;;;;;;;;;;20973013;28;20270;-70
2022/10/01 20:55:51;;;;;;;2.33;0.63;;;13.10;99.90;;;;;;21069017;28;20224;-71
2022/10/01 21:06:03;;;;;;;1.10;0.43;;;13.00;99.90;;;;;;21048778;28;20231;-71
2022/10/01 21:16:11;;;;;;;1.70;0.73;;;;;;;;;;21055678;28;20242;-71
2022/10/01 21:26:24;;;;;;;1.03;0.57;;;13.20;99.90;;;;;;21069220;28;20703;-70
2022/10/01 21:36:52;;;;;;;1.63;0.80;;;;;;;;;;21066411;28;20578;-71
2022/10/01 21:46:54;;;;;;;2.47;0.70;;;;;;;;;;21064382;28;20209;-70
2022/10/01 21:56:59;;;;;;;2.20;0.70;;;;;;;;;;21046515;28;20220;-70
2022/10/01 22:07:10;;;;;;;1.40;0.73;;;;;;;;;;21064162;28;20711;-70
2022/10/01 22:17:14;;;;;;;5.50;0.90;;;;;;;;;;21062705;28;20211;-70
2022/10/01 22:27:23;;;;;;;1.40;0.50;;;;;;;;;;21043303;28;20283;-71
2022/10/01 22:37:33;;;;;;;2.40;0.70;;;;;;;;;;21044675;28;20245;-69
2022/10/01 22:48:00;;;;;;;3.57;1.00;;;13.10;99.90;;;;;;21066139;28;20752;-70
2022/10/01 22:58:09;;;;;;;5.00;0.70;;;;;;;;;;21065838;28;20228;-70
2022/10/01 23:08:33;;;;;;;1.10;0.70;;;13.10;99.90;;;;;;21066250;28;20208;-70
2022/10/01 23:18:49;;;;;;;2.10;0.77;;;13.10;99.90;;;;;;21066040;28;20600;-71
2022/10/01 23:29:14;;;;;;;2.93;0.73;;;;;;;;;;21064689;28;20208;-69
2022/10/01 23:39:36;;;;;;;2.07;0.90;;;;;;;;;;21065023;28;20255;-69
2022/10/01 23:49:43;;;;;;;0.90;0.60;;;13.10;99.90;;;;;;21078322;28;20301;-69
2022/10/01 23:59:48;;;;;;;2.33;0.60;;;;;;;;;;21073785;28;20232;-69
